Time;durP1;ratioP1;P1;durP2;ratioP2;P2;SDS_P1;SDS_P2;PMS_P1;PMS_P2;Temp;Humidity;BMP_temperature;BMP_pressure;BME280_temperature;BME280_humidity;BME280_pressure;Samples;Min_cycle;Max_cycle;Signal;HPM_P1;HPM_P2
2022/07/16 00:02:29;;;;;;;8.80;3.92;;;;;;;;;;4989322;28;20034;-64
2022/07/16 00:05:14;;;;;;;8.57;3.85;;;;;;;;;;4999463;28;20053;-64
2022/07/16 00:08:00;;;;;;;6.60;3.08;;;;;;;;;;4983943;28;20506;-64
2022/07/16 00:10:45;;;;;;;6.10;3.47;;;;;;;;;;4960686;28;20085;-64
2022/07/16 00:13:31;;;;;;;5.18;3.13;;;;;;;;;;4942683;28;20035;-65
2022/07/16 00:16:17;;;;;;;4.10;3.00;;;;;;;;;;4983313;28;20082;-66
2022/07/16 00:19:21;;;;;;;6.93;3.58;;;;;;;;;;4983122;28;20461;-67
2022/07/16 00:22:06;;;;;;;5.68;3.00;;;;;;;;;;4979933;28;20488;-65
2022/07/16 00:24:52;;;;;;;5.53;2.88;;;;;;;;;;4989842;28;20117;-66
2022/07/16 00:27:37;;;;;;;6.07;3.33;;;;;;;;;;4947431;28;20417;-66
2022/07/16 00:30:23;;;;;;;6.72;3.35;;;;;;;;;;5011743;28;20835;-65
2022/07/16 00:33:09;;;;;;;9.13;3.20;;;;;;;;;;5001363;28;20452;-67
2022/07/16 00:35:54;;;;;;;4.93;3.00;;;;;;;;;;4999653;28;20034;-72
2022/07/16 00:38:40;;;;;;;5.85;3.80;;;;;;;;;;4977771;28;20081;-72
2022/07/16 00:41:25;;;;;;;5.25;3.08;;;;;;;;;;4991415;28;20034;-73
2022/07/16 00:44:12;;;;;;;4.97;3.00;;;;;;;;;;4980964;28;20034;-74
2022/07/16 00:46:57;;;;;;;10.32;3.50;;;;;;;;;;4992165;28;20044;-75
2022/07/16 00:49:43;;;;;;;6.70;3.08;;;;;;;;;;5005871;28;20065;-64
2022/07/16 00:52:29;;;;;;;7.50;3.10;;;;;;;;;;5014154;28;20030;-65
2022/07/16 00:55:14;;;;;;;5.07;2.72;;;;;;;;;;5004832;28;20046;-65
2022/07/16 00:58:00;;;;;;;5.57;3.10;;;;;;;;;;5001721;28;20159;-65
2022/07/16 01:00:46;;;;;;;7.35;3.53;;;;;;;;;;5008357;28;20029;-65
2022/07/16 01:03:32;;;;;;;8.35;3.40;;;;;;;;;;5002753;28;20022;-67
2022/07/16 01:06:18;;;;;;;6.10;3.58;;;;;;;;;;5001175;28;20069;-65
2022/07/16 01:09:04;;;;;;;10.50;4.38;;;;;;;;;;5015897;28;20514;-65
2022/07/16 01:11:50;;;;;;;5.05;3.17;;;;;;;;;;4996755;28;20440;-65
2022/07/16 01:14:35;;;;;;;5.07;3.60;;;;;;;;;;4998972;28;20550;-65
2022/07/16 01:17:21;;;;;;;10.25;4.05;;;;;;;;;;4973986;28;20437;-65
2022/07/16 01:20:07;;;;;;;6.00;3.38;;;;;;;;;;4991278;28;20029;-65
2022/07/16 01:22:53;;;;;;;7.68;3.75;;;;;;;;;;5018316;28;20033;-64
2022/07/16 01:25:39;;;;;;;7.40;3.58;;;;;;;;;;5004658;28;20064;-62
2022/07/16 01:28:25;;;;;;;5.97;3.70;;;;;;;;;;5011120;28;20029;-72
2022/07/16 01:31:11;;;;;;;5.32;3.58;;;;;;;;;;4999973;28;20446;-64
2022/07/16 01:37:03;;;;;;;6.55;3.30;;;;;;;;;;5013015;28;20063;-65
2022/07/16 01:39:49;;;;;;;5.90;3.83;;;;;;;;;;5007109;28;20102;-65
2022/07/16 01:42:34;;;;;;;5.15;3.22;;;;;;;;;;5004608;28;20490;-67
2022/07/16 01:45:20;;;;;;;5.85;3.20;;;;;;;;;;4985416;28;20130;-61
2022/07/16 01:48:06;;;;;;;5.63;3.53;;;;;;;;;;4977640;28;20034;-62
2022/07/16 01:50:52;;;;;;;8.75;3.78;;;;;;;;;;4982715;28;20068;-63
2022/07/16 01:53:38;;;;;;;9.15;4.10;;;;;;;;;;4988200;28;20042;-62
2022/07/16 01:56:23;;;;;;;7.03;3.92;;;;;;;;;;4972960;28;20023;-61
2022/07/16 01:59:09;;;;;;;6.30;3.75;;;;;;;;;;4975022;28;20034;-62
2022/07/16 02:01:54;;;;;;;4.90;3.50;;;;;;;;;;4968980;28;20117;-63
2022/07/16 02:04:41;;;;;;;5.05;3.53;;;;;;;;;;4962738;28;20038;-65
2022/07/16 02:07:26;;;;;;;5.63;3.55;;;;;;;;;;4959114;28;20041;-63
2022/07/16 02:10:12;;;;;;;6.10;3.50;;;;;;;;;;4960835;28;20038;-62
2022/07/16 02:12:57;;;;;;;8.25;3.30;;;;;;;;;;4989661;28;20036;-65
2022/07/16 02:15:43;;;;;;;7.20;3.38;;;;;;;;;;5001312;28;20092;-63
2022/07/16 02:18:28;;;;;;;5.20;3.53;;;;;;;;;;4996867;28;20156;-63
2022/07/16 02:21:14;;;;;;;6.25;4.15;;;;;;;;;;4984464;28;20535;-67
2022/07/16 02:24:00;;;;;;;6.88;3.67;;;;;;;;;;4980470;28;20166;-62
2022/07/16 02:26:45;;;;;;;5.93;3.40;;;;;;;;;;5013939;28;20152;-62
2022/07/16 02:29:31;;;;;;;7.20;3.63;;;;;;;;;;5002709;28;20111;-61
2022/07/16 02:32:16;;;;;;;5.80;3.30;;;;;;;;;;5009918;28;20124;-64
2022/07/16 02:35:02;;;;;;;7.25;3.63;;;;;;;;;;5004712;28;20096;-63
2022/07/16 02:37:48;;;;;;;5.60;3.30;;;;;;;;;;5004686;28;20038;-64
2022/07/16 02:40:34;;;;;;;5.90;3.78;;;;;;;;;;5008498;28;20543;-63
2022/07/16 02:43:20;;;;;;;5.82;3.83;;;;;;;;;;5015910;28;20099;-75
2022/07/16 02:46:05;;;;;;;6.80;3.60;;;;;;;;;;5013201;28;20037;-75
2022/07/16 02:48:51;;;;;;;7.03;4.07;;;;;;;;;;4998434;28;20104;-75
2022/07/16 02:51:37;;;;;;;6.78;3.40;;;;;;;;;;4976462;28;20069;-75
2022/07/16 02:54:22;;;;;;;4.40;3.53;;;;;;;;;;4992672;28;20034;-75
2022/07/16 02:57:08;;;;;;;7.53;3.10;;;;;;;;;;4984316;28;20042;-75
2022/07/16 02:59:53;;;;;;;6.88;2.90;;;;;;;;;;4994652;28;20063;-62
2022/07/16 03:02:40;;;;;;;7.60;3.50;;;;;;;;;;4987965;28;20108;-62
2022/07/16 03:05:25;;;;;;;5.82;3.10;;;;;;;;;;4992482;28;20495;-63
2022/07/16 03:08:11;;;;;;;5.03;3.45;;;;;;;;;;4978209;28;20038;-65
2022/07/16 03:10:56;;;;;;;6.13;3.20;;;;;;;;;;4969289;28;20033;-63
2022/07/16 03:13:42;;;;;;;4.63;3.38;;;;;;;;;;5001361;28;20457;-62
2022/07/16 03:16:27;;;;;;;6.63;3.78;;;;;;;;;;4982951;28;20053;-65
2022/07/16 03:19:13;;;;;;;5.50;3.10;;;;;;;;;;5000921;28;20030;-61
2022/07/16 03:21:59;;;;;;;6.55;3.63;;;;;;;;;;5003934;28;20397;-61
2022/07/16 03:24:44;;;;;;;6.28;3.30;;;;;;;;;;4986961;28;20038;-61
2022/07/16 03:27:30;;;;;;;5.25;3.95;;;;;;;;;;4979456;28;20034;-63
2022/07/16 03:30:17;;;;;;;5.85;3.15;;;;;;;;;;5005285;28;20032;-63
2022/07/16 03:33:03;;;;;;;4.50;3.10;;;;;;;;;;4974697;28;20505;-64
2022/07/16 03:35:48;;;;;;;6.80;4.38;;;;;;;;;;4977467;28;20034;-67
2022/07/16 03:41:38;;;;;;;5.25;3.50;;;;;;;;;;5008505;28;20033;-61
2022/07/16 03:44:24;;;;;;;4.00;3.10;;;;;;;;;;5015301;28;20095;-60
2022/07/16 03:47:09;;;;;;;4.90;3.50;;;;;;;;;;5013826;28;20045;-62
2022/07/16 03:49:55;;;;;;;6.63;2.95;;;;;;;;;;5015200;28;20045;-61
2022/07/16 03:52:41;;;;;;;5.28;3.28;;;;;;;;;;5006284;28;20112;-66
2022/07/16 03:55:26;;;;;;;5.00;3.08;;;;;;;;;;5005736;28;20029;-62
2022/07/16 03:58:12;;;;;;;5.75;3.90;;;;;;;;;;4999092;28;20029;-65
2022/07/16 04:00:57;;;;;;;5.50;3.10;;;;;;;;;;5004794;28;20025;-63
2022/07/16 04:03:43;;;;;;;5.85;3.70;;;;;;;;;;5002499;28;20092;-62
2022/07/16 04:06:28;;;;;;;4.50;3.30;;;;;;;;;;4977673;28;20042;-62
2022/07/16 04:09:14;;;;;;;6.15;3.58;;;;;;;;;;4997304;28;20037;-62
2022/07/16 04:12:00;;;;;;;5.55;3.50;;;;;;;;;;4972312;28;20101;-61
2022/07/16 04:14:45;;;;;;;6.63;3.72;;;;;;;;;;4987033;28;20400;-60
2022/07/16 04:17:31;;;;;;;6.93;3.92;;;;;;;;;;4985004;28;20113;-61
2022/07/16 04:20:16;;;;;;;9.35;4.40;;;;;;;;;;4997823;28;20030;-62
2022/07/16 04:23:02;;;;;;;7.15;3.67;;;;;;;;;;4991725;28;20037;-61
2022/07/16 04:25:48;;;;;;;6.90;3.80;;;;;;;;;;4975548;28;20052;-61
2022/07/16 04:28:33;;;;;;;5.30;3.63;;;;;;;;;;4990695;28;20421;-61
2022/07/16 04:31:19;;;;;;;5.53;3.75;;;;;;;;;;4988690;28;20033;-61
2022/07/16 04:34:04;;;;;;;5.82;3.50;;;;;;;;;;4983424;28;20037;-67
2022/07/16 04:36:50;;;;;;;7.43;3.78;;;;;;;;;;5003028;28;20045;-64
2022/07/16 04:39:35;;;;;;;7.15;3.55;;;;;;;;;;4986644;28;20071;-62
2022/07/16 04:42:21;;;;;;;8.23;2.97;;;;;;;;;;4988223;28;20096;-62
2022/07/16 04:45:07;;;;;;;4.60;3.42;;;;;;;;;;4998468;28;20554;-63
2022/07/16 04:47:53;;;;;;;7.03;3.78;;;;;;;;;;4995433;28;20034;-69
2022/07/16 04:50:39;;;;;;;6.00;3.53;;;;;;;;;;4981405;28;20045;-61
2022/07/16 04:53:24;;;;;;;4.18;3.20;;;;;;;;;;4999428;28;20030;-75
2022/07/16 04:56:10;;;;;;;7.13;3.40;;;;;;;;;;4999752;28;20148;-74
2022/07/16 04:58:55;;;;;;;9.60;3.13;;;;;;;;;;4995323;28;20032;-74
2022/07/16 05:01:41;;;;;;;4.97;3.22;;;;;;;;;;5005891;28;20071;-75
2022/07/16 05:04:26;;;;;;;5.47;3.15;;;;;;;;;;5015398;28;20087;-76
2022/07/16 05:07:12;;;;;;;7.03;4.13;;;;;;;;;;5004273;28;20041;-64
2022/07/16 05:09:58;;;;;;;8.65;3.60;;;;;;;;;;5008161;28;20083;-61
2022/07/16 05:12:44;;;;;;;8.00;3.40;;;;;;;;;;5016872;28;20033;-61
2022/07/16 05:15:30;;;;;;;5.60;3.28;;;;;;;;;;5002559;28;20465;-62
2022/07/16 05:18:15;;;;;;;5.70;3.20;;;;;;;;;;4999721;28;20034;-62
2022/07/16 05:21:01;;;;;;;7.03;3.33;;;;;;;;;;4985370;28;20030;-61
2022/07/16 05:23:46;;;;;;;4.93;3.15;;;;;;;;;;4996600;28;20702;-60
2022/07/16 05:26:32;;;;;;;5.93;3.22;;;;;;;;;;5009267;28;20041;-74
2022/07/16 05:29:17;;;;;;;6.70;3.25;;;;;;;;;;5002612;28;20018;-74
2022/07/16 05:32:04;;;;;;;5.53;3.00;;;;;;;;;;4990374;28;20042;-75
2022/07/16 05:34:49;;;;;;;7.32;3.10;;;;;;;;;;5011645;28;20033;-76
2022/07/16 05:37:35;;;;;;;4.50;2.90;;;;;;;;;;5013120;28;20036;-75
2022/07/16 05:40:20;;;;;;;7.15;3.25;;;;;;;;;;5003216;28;20045;-74
2022/07/16 05:43:06;;;;;;;5.97;2.90;;;;;;;;;;4997864;28;20033;-64
2022/07/16 05:45:52;;;;;;;8.50;2.78;;;;;;;;;;5011311;28;20037;-75
2022/07/16 05:48:37;;;;;;;6.72;2.80;;;;;;;;;;5010145;28;20026;-62
2022/07/16 05:51:23;;;;;;;6.30;2.65;;;;;;;;;;5015736;28;20043;-60
2022/07/16 05:54:09;;;;;;;5.53;3.58;;;;;;;;;;5009449;28;20033;-61
2022/07/16 05:56:54;;;;;;;6.63;2.90;;;;;;;;;;5009931;28;20065;-61
2022/07/16 05:59:40;;;;;;;6.35;2.97;;;;;;;;;;5010009;28;20037;-62
2022/07/16 06:02:25;;;;;;;7.68;2.80;;;;;;;;;;5006886;28;20033;-63
2022/07/16 06:05:11;;;;;;;4.15;2.55;;;;;;;;;;5015198;28;20965;-66
2022/07/16 06:07:56;;;;;;;4.90;2.72;;;;;;;;;;5014123;28;20029;-67
2022/07/16 06:10:42;;;;;;;4.18;2.33;;;;;;;;;;5017642;28;20456;-67
2022/07/16 06:13:28;;;;;;;6.85;2.78;;;;;;;;;;4992171;28;20034;-66
2022/07/16 06:16:13;;;;;;;11.95;3.40;;;;;;;;;;5003885;28;20045;-68
2022/07/16 06:18:59;;;;;;;4.65;2.65;;;;;;;;;;4954794;28;20035;-67
2022/07/16 06:21:44;;;;;;;4.22;2.40;;;;;;;;;;4966299;28;20049;-65
2022/07/16 06:24:30;;;;;;;4.93;2.28;;;;;;;;;;4979979;28;20026;-66
2022/07/16 06:27:16;;;;;;;3.97;2.55;;;;;;;;;;4974333;28;20042;-68
2022/07/16 06:30:05;;;;;;;4.03;2.25;;;;;;;;;;4957800;28;20457;-66
2022/07/16 06:32:51;;;;;;;4.75;2.17;;;;;;;;;;4992835;28;20165;-68
2022/07/16 06:35:36;;;;;;;5.57;3.08;;;;;;;;;;4935839;28;20027;-68
2022/07/16 06:38:22;;;;;;;4.40;2.25;;;;;;;;;;4983712;28;20413;-67
2022/07/16 06:41:08;;;;;;;8.73;2.55;;;;;;;;;;4968904;28;20437;-64
2022/07/16 06:43:53;;;;;;;5.15;2.10;;;;;;;;;;4963300;28;20125;-63
2022/07/16 06:46:39;;;;;;;5.60;2.35;;;;;;;;;;4952014;28;20053;-61
2022/07/16 06:49:25;;;;;;;6.50;2.55;;;;;;;;;;4949252;28;20046;-61
2022/07/16 06:52:10;;;;;;;5.15;2.33;;;;;;;;;;4947205;28;20038;-61
2022/07/16 06:54:56;;;;;;;3.80;2.40;;;;;;;;;;4972145;28;20042;-63
2022/07/16 06:57:42;;;;;;;11.45;2.85;;;;;;;;;;4981153;28;20050;-65
2022/07/16 07:00:27;;;;;;;3.05;2.03;;;;;;;;;;4960668;28;20028;-62
2022/07/16 07:03:13;;;;;;;5.05;2.58;;;;;;;;;;4921538;28;20044;-61
2022/07/16 07:05:58;;;;;;;5.82;2.25;;;;;;;;;;4933758;28;20070;-61
2022/07/16 07:08:44;;;;;;;6.70;3.28;;;;;;;;;;4943376;28;20027;-61
2022/07/16 07:11:30;;;;;;;7.80;3.70;;;;;;;;;;4965009;28;20477;-62
2022/07/16 07:14:16;;;;;;;5.13;3.13;;;;;;;;;;4964902;28;20038;-62
2022/07/16 07:17:01;;;;;;;5.88;2.42;;;;;;;;;;4967149;28;20030;-62
2022/07/16 07:19:47;;;;;;;6.30;3.00;;;;;;;;;;4939515;28;20083;-63
2022/07/16 07:22:33;;;;;;;7.10;3.00;;;;;;;;;;4933332;28;20038;-61
2022/07/16 07:25:18;;;;;;;6.82;2.75;;;;;;;;;;4953008;28;20062;-63
2022/07/16 07:28:04;;;;;;;7.07;3.03;;;;;;;;;;4969846;28;20031;-61
2022/07/16 07:30:49;;;;;;;6.78;2.95;;;;;;;;;;4969406;28;20429;-63
2022/07/16 07:33:38;;;;;;;5.35;3.03;;;;;;;;;;4941394;28;20039;-64
2022/07/16 07:36:24;;;;;;;5.22;3.08;;;;;;;;;;4945678;28;20683;-64
2022/07/16 07:39:09;;;;;;;7.22;3.40;;;;;;;;;;4947318;28;20071;-67
2022/07/16 07:41:56;;;;;;;5.85;3.17;;;;;;;;;;4952134;28;20039;-67
2022/07/16 07:44:42;;;;;;;8.02;2.92;;;;;;;;;;4977634;28;20553;-67
2022/07/16 07:47:28;;;;;;;7.00;3.25;;;;;;;;;;4944976;28;20043;-70
2022/07/16 07:50:13;;;;;;;6.63;2.83;;;;;;;;;;4897384;29;20114;-70
2022/07/16 07:52:59;;;;;;;5.80;3.05;;;;;;;;;;4916509;29;20043;-65
2022/07/16 07:55:44;;;;;;;10.57;3.88;;;;;;;;;;4931415;28;20039;-64
2022/07/16 07:58:30;;;;;;;7.90;3.00;;;;;;;;;;4935250;28;20031;-65
2022/07/16 08:01:16;;;;;;;4.47;2.80;;;;;;;;;;4933288;28;20372;-70
2022/07/16 08:04:02;;;;;;;5.07;2.13;;;;;;;;;;4926664;28;20543;-67
2022/07/16 08:06:47;;;;;;;6.15;1.98;;;;;;;;;;4917035;28;20048;-67
2022/07/16 08:09:33;;;;;;;5.45;1.85;;;;;;;;;;4908127;28;20615;-68
2022/07/16 08:12:19;;;;;;;3.10;1.92;;;;;;;;;;4921909;28;20046;-74
2022/07/16 08:15:05;;;;;;;6.45;2.15;;;;;;;;;;4950375;28;20030;-69
2022/07/16 08:17:51;;;;;;;6.43;2.50;;;;;;;;;;4912633;28;20047;-65
2022/07/16 08:20:38;;;;;;;7.22;2.42;;;;;;;;;;4918286;28;26881;-70
2022/07/16 08:26:27;;;;;;;11.10;2.95;;;;;;;;;;4947667;28;20078;-69
2022/07/16 08:29:13;;;;;;;5.75;1.98;;;;;;;;;;4963091;28;20465;-75
2022/07/16 08:31:59;;;;;;;4.07;1.77;;;;;;;;;;4972106;28;20054;-65
2022/07/16 08:34:44;;;;;;;4.90;1.85;;;;;;;;;;4981185;28;20038;-65
2022/07/16 08:37:35;;;;;;;5.30;2.05;;;;;;;;;;4995072;28;20109;-64
2022/07/16 08:40:22;;;;;;;3.92;1.95;;;;;;;;;;5000268;28;20037;-65
2022/07/16 08:43:08;;;;;;;4.65;2.17;;;;;;;;;;4983538;28;20064;-67
2022/07/16 08:45:54;;;;;;;4.13;1.65;;;;;;;;;;4988274;28;20431;-65
2022/07/16 08:48:40;;;;;;;4.78;2.03;;;;;;;;;;4969539;28;20030;-68
2022/07/16 08:51:34;;;;;;;4.55;2.30;;;;;;;;;;4987540;28;20034;-74
2022/07/16 08:54:20;;;;;;;4.20;1.80;;;;;;;;;;4992354;28;20042;-76
2022/07/16 08:57:06;;;;;;;3.92;1.90;;;;;;;;;;4992732;28;20061;-75
2022/07/16 08:59:52;;;;;;;4.38;1.90;;;;;;;;;;4989838;28;20042;-77
2022/07/16 09:02:38;;;;;;;3.97;1.70;;;;;;;;;;4994819;28;20045;-76
2022/07/16 09:05:24;;;;;;;3.25;1.73;;;;;;;;;;5002681;28;20142;-62
2022/07/16 09:08:10;;;;;;;5.80;2.28;;;;;;;;;;4994508;28;20561;-68
2022/07/16 09:11:15;;;;;;;7.57;2.00;;;;;;;;;;5007066;28;20036;-60
2022/07/16 09:14:04;;;;;;;5.05;1.73;;;;;;;;;;5007831;28;20050;-62
2022/07/16 09:16:51;;;;;;;4.80;1.92;;;;;;;;;;5010843;28;20041;-61
2022/07/16 09:19:37;;;;;;;3.20;1.67;;;;;;;;;;5014434;28;20025;-60
2022/07/16 09:22:24;;;;;;;4.40;2.03;;;;;;;;;;4997937;28;20033;-61
2022/07/16 09:25:09;;;;;;;4.38;1.27;;;;;;;;;;5003751;28;20439;-77
2022/07/16 09:27:59;;;;;;;1.90;1.30;;;;;;;;;;5008543;28;20048;-71
2022/07/16 09:30:45;;;;;;;3.00;1.55;;;;;;;;;;5002567;28;20034;-69
2022/07/16 09:33:30;;;;;;;4.40;1.80;;;;;;;;;;4984178;28;20025;-70
2022/07/16 09:36:16;;;;;;;3.47;1.40;;;;;;;;;;4997531;28;20096;-70
2022/07/16 09:39:02;;;;;;;1.85;1.45;;;;;;;;;;5003105;28;20037;-73
2022/07/16 09:41:48;;;;;;;4.80;2.15;;;;;;;;;;5005630;28;20061;-71
2022/07/16 09:44:33;;;;;;;1.92;1.40;;;;;;;;;;5009099;28;20527;-66
2022/07/16 09:47:22;;;;;;;8.73;1.92;;;;;;;;;;5014829;28;20448;-69
2022/07/16 09:50:07;;;;;;;2.90;1.50;;;;;;;;;;5001252;28;20041;-74
2022/07/16 09:52:53;;;;;;;4.65;1.98;;;;;;;;;;5009842;28;23621;-65
2022/07/16 09:55:57;;;;;;;3.67;1.83;;;;;;;;;;4999872;28;20652;-66
2022/07/16 09:58:47;;;;;;;6.75;1.98;;;;;;;;;;5013330;28;20049;-72
2022/07/16 10:01:33;;;;;;;5.25;2.08;;;;;;;;;;5001319;28;20060;-69
2022/07/16 10:04:20;;;;;;;5.57;2.33;;;;;;;;;;4995233;28;20092;-78
2022/07/16 10:07:06;;;;;;;2.67;1.65;;;;;;;;;;5001322;28;20042;-80
2022/07/16 10:09:52;;;;;;;5.43;1.70;;;;;;;;;;4994931;28;20113;-77
2022/07/16 10:12:37;;;;;;;6.90;1.98;;;;;;;;;;4979617;28;20053;-77
2022/07/16 10:15:23;;;;;;;2.80;1.80;;;;;;;;;;5009153;28;20153;-81
2022/07/16 10:18:27;;;;;;;7.63;2.00;;;;;;;;;;4986182;28;20042;-78
2022/07/16 10:21:13;;;;;;;4.85;1.60;;;;;;;;;;5013529;28;20026;-70
2022/07/16 10:24:06;;;;;;;3.65;2.00;;;;;;;;;;5009832;28;20444;-72
2022/07/16 10:27:11;;;;;;;8.93;1.80;;;;;;;;;;5014959;28;21409;-72
2022/07/16 10:30:15;;;;;;;2.47;1.88;;;;;;;;;;4977888;28;20444;-73
2022/07/16 10:33:02;;;;;;;4.55;1.52;;;;;;;;;;4985113;28;20382;-73
2022/07/16 10:35:49;;;;;;;5.85;2.20;;;;;;;;;;4989834;28;20027;-72
2022/07/16 10:38:35;;;;;;;5.65;1.67;;;;;;;;;;5013438;28;20037;-77
2022/07/16 10:41:20;;;;;;;4.35;1.90;;;;;;;;;;5013977;28;20041;-77
2022/07/16 10:44:10;;;;;;;5.20;1.85;;;;;;;;;;5016675;28;20037;-76
2022/07/16 10:46:57;;;;;;;3.83;1.48;;;;;;;;;;4975717;28;20041;-76
2022/07/16 10:49:43;;;;;;;3.03;1.75;;;;;;;;;;5011650;28;20061;-76
2022/07/16 10:52:42;;;;;;;2.00;1.10;;;;;;;;;;5009807;28;20029;-76
2022/07/16 10:55:34;;;;;;;7.07;1.80;;;;;;;;;;5004803;28;20033;-76
2022/07/16 10:58:26;;;;;;;5.53;1.90;;;;;;;;;;5004207;28;20026;-75
2022/07/16 11:01:11;;;;;;;3.25;1.35;;;;;;;;;;4991144;28;20034;-76
2022/07/16 11:03:57;;;;;;;3.33;1.63;;;;;;;;;;4989229;28;20528;-76
2022/07/16 11:06:48;;;;;;;3.55;1.38;;;;;;;;;;4983090;28;20038;-76
2022/07/16 11:09:38;;;;;;;6.30;1.60;;;;;;;;;;4993170;28;20038;-76
2022/07/16 11:12:25;;;;;;;5.13;1.77;;;;;;;;;;4998253;28;20034;-75
2022/07/16 11:15:11;;;;;;;5.35;2.22;;;;;;;;;;4996313;28;20511;-80
2022/07/16 11:17:57;;;;;;;4.22;1.90;;;;;;;;;;5000881;28;20121;-75
2022/07/16 11:20:43;;;;;;;3.55;1.17;;;;;;;;;;5013572;28;20486;-75
2022/07/16 11:23:29;;;;;;;2.33;1.27;;;;;;;;;;5016915;28;20030;-74
2022/07/16 11:26:15;;;;;;;6.00;1.60;;;;;;;;;;5003066;28;20400;-75
2022/07/16 11:29:03;;;;;;;3.67;1.48;;;;;;;;;;5013195;28;20030;-74
2022/07/16 11:31:48;;;;;;;4.53;1.30;;;;;;;;;;5010342;28;20041;-77
2022/07/16 11:34:34;;;;;;;1.33;1.20;;;;;;;;;;4996013;28;20068;-73
2022/07/16 11:37:21;;;;;;;3.97;1.55;;;;;;;;;;5015522;28;20083;-72
2022/07/16 11:40:06;;;;;;;5.45;1.73;;;;;;;;;;5006570;28;20025;-71
2022/07/16 11:42:56;;;;;;;2.85;1.10;;;;;;;;;;5008230;28;20025;-72
2022/07/16 11:45:42;;;;;;;1.17;1.08;;;;;;;;;;5015463;28;20045;-70
2022/07/16 11:48:37;;;;;;;2.83;1.15;;;;;;;;;;5017496;28;20104;-70
2022/07/16 11:51:23;;;;;;;2.90;1.35;;;;;;;;;;5021166;28;20037;-75
2022/07/16 11:54:09;;;;;;;2.67;1.38;;;;;;;;;;5020510;28;20032;-71
2022/07/16 11:56:55;;;;;;;4.00;1.75;;;;;;;;;;4995157;28;20033;-70
2022/07/16 11:59:42;;;;;;;3.92;2.03;;;;;;;;;;5009446;28;20099;-71
2022/07/16 12:02:28;;;;;;;1.63;1.33;;;;;;;;;;5017411;28;20022;-70
2022/07/16 12:05:13;;;;;;;16.52;2.20;;;;;;;;;;5017897;28;20045;-71
2022/07/16 12:07:59;;;;;;;1.67;1.05;;;;;;;;;;4996952;28;20034;-70
2022/07/16 12:10:55;;;;;;;5.35;1.55;;;;;;;;;;5009832;28;20037;-73
2022/07/16 12:13:50;;;;;;;3.53;1.58;;;;;;;;;;5008821;28;20029;-72
2022/07/16 12:16:36;;;;;;;4.50;1.77;;;;;;;;;;5020078;28;20025;-73
2022/07/16 12:19:21;;;;;;;2.65;1.48;;;;;;;;;;5003570;28;20054;-73
2022/07/16 12:22:07;;;;;;;5.00;1.63;;;;;;;;;;5001638;28;20472;-72
2022/07/16 12:24:52;;;;;;;4.47;1.42;;;;;;;;;;5009511;28;20079;-72
2022/07/16 12:27:45;;;;;;;2.22;1.52;;;;;;;;;;5006017;28;20131;-73
2022/07/16 12:30:34;;;;;;;3.38;1.45;;;;;;;;;;4977516;28;20381;-74
2022/07/16 12:33:22;;;;;;;4.38;1.70;;;;;;;;;;4991020;28;20080;-70
2022/07/16 12:36:09;;;;;;;4.97;1.50;;;;;;;;;;4962498;28;20046;-70
2022/07/16 12:38:59;;;;;;;4.97;1.40;;;;;;;;;;4988122;28;20033;-70
2022/07/16 12:41:48;;;;;;;3.38;1.00;;;;;;;;;;4978382;28;20034;-70
2022/07/16 12:44:33;;;;;;;3.17;1.10;;;;;;;;;;4981692;28;20127;-69
2022/07/16 12:47:19;;;;;;;3.30;1.15;;;;;;;;;;4986449;28;20069;-69
2022/07/16 12:50:05;;;;;;;4.10;1.30;;;;;;;;;;4985198;28;20069;-76
2022/07/16 12:52:50;;;;;;;2.28;1.15;;;;;;;;;;4993327;28;20042;-75
2022/07/16 12:58:49;;;;;;;2.47;1.23;;;;;;;;;;4986447;28;20041;-74
2022/07/16 13:01:35;;;;;;;3.42;1.00;;;;;;;;;;4975077;28;20042;-74
2022/07/16 13:04:21;;;;;;;4.00;1.23;;;;;;;;;;4974353;28;20557;-75
2022/07/16 13:07:09;;;;;;;2.03;1.33;;;;;;;;;;4963628;28;20045;-75
2022/07/16 13:09:54;;;;;;;2.28;1.13;;;;;;;;;;4977241;28;20039;-69
2022/07/16 13:12:40;;;;;;;3.40;1.20;;;;;;;;;;4999414;28;20029;-70
2022/07/16 13:15:26;;;;;;;3.78;1.42;;;;;;;;;;5000365;28;20044;-69
2022/07/16 13:18:11;;;;;;;2.42;1.65;;;;;;;;;;4994255;28;20065;-68
2022/07/16 13:20:57;;;;;;;3.08;1.52;;;;;;;;;;4985442;28;20485;-71
2022/07/16 13:23:43;;;;;;;4.13;1.33;;;;;;;;;;4990082;28;20030;-74
2022/07/16 13:26:30;;;;;;;4.97;2.45;;;;;;;;;;4974948;28;20101;-71
2022/07/16 13:29:15;;;;;;;2.13;1.38;;;;;;;;;;4981673;28;20041;-71
2022/07/16 13:32:01;;;;;;;4.20;1.30;;;;;;;;;;4960137;28;20074;-72
2022/07/16 13:34:47;;;;;;;1.80;1.00;;;;;;;;;;4979319;28;20030;-72
2022/07/16 13:37:33;;;;;;;2.75;1.65;;;;;;;;;;5009819;28;20029;-72
2022/07/16 13:40:18;;;;;;;2.47;1.13;;;;;;;;;;4996404;28;20108;-71
2022/07/16 13:43:04;;;;;;;3.08;1.10;;;;;;;;;;5010044;28;20484;-73
2022/07/16 13:45:50;;;;;;;3.33;1.20;;;;;;;;;;5008639;28;20076;-73
2022/07/16 13:48:36;;;;;;;2.97;1.67;;;;;;;;;;5009097;28;20060;-74
2022/07/16 13:51:21;;;;;;;4.10;1.45;;;;;;;;;;5012723;28;20063;-74
2022/07/16 13:54:07;;;;;;;2.28;1.65;;;;;;;;;;5001086;28;20038;-74
2022/07/16 13:56:53;;;;;;;4.05;1.80;;;;;;;;;;5015917;28;20376;-72
2022/07/16 13:59:38;;;;;;;5.43;1.63;;;;;;;;;;4986276;28;20065;-76
2022/07/16 14:02:24;;;;;;;2.33;1.40;;;;;;;;;;4988018;28;20029;-74
2022/07/16 14:05:10;;;;;;;3.92;1.83;;;;;;;;;;4969510;28;20441;-74
2022/07/16 14:07:57;;;;;;;4.13;1.50;;;;;;;;;;4975744;28;20057;-75
2022/07/16 14:10:43;;;;;;;3.78;1.77;;;;;;;;;;4994091;28;24666;-73
2022/07/16 14:13:28;;;;;;;2.80;1.90;;;;;;;;;;4998367;28;20041;-72
2022/07/16 14:16:14;;;;;;;4.30;1.60;;;;;;;;;;4989052;28;21305;-73
2022/07/16 14:18:59;;;;;;;8.70;1.98;;;;;;;;;;4984957;28;22193;-74
2022/07/16 14:21:45;;;;;;;4.30;1.75;;;;;;;;;;4980060;28;20034;-72
2022/07/16 14:24:31;;;;;;;4.57;1.90;;;;;;;;;;4980304;28;20026;-70
2022/07/16 14:27:16;;;;;;;7.15;1.85;;;;;;;;;;4981876;28;20038;-69
2022/07/16 14:30:02;;;;;;;4.35;1.95;;;;;;;;;;4985625;28;20108;-70
2022/07/16 14:32:48;;;;;;;2.28;1.70;;;;;;;;;;4962970;28;20102;-70
2022/07/16 14:35:34;;;;;;;5.38;1.75;;;;;;;;;;4991106;28;20480;-70
2022/07/16 14:38:27;;;;;;;4.20;2.17;;;;;;;;;;4982217;28;20038;-75
2022/07/16 14:41:13;;;;;;;5.22;2.42;;;;;;;;;;4971130;28;20710;-74
2022/07/16 14:43:59;;;;;;;3.45;2.20;;;;;;;;;;4982783;28;20389;-74
2022/07/16 14:46:44;;;;;;;5.70;2.80;;;;;;;;;;4966442;28;20050;-74
2022/07/16 14:49:30;;;;;;;4.35;2.33;;;;;;;;;;4991096;28;20057;-75
2022/07/16 14:52:15;;;;;;;5.18;2.00;;;;;;;;;;5004647;28;20088;-74
2022/07/16 14:55:01;;;;;;;3.20;1.92;;;;;;;;;;5012243;28;20041;-69
2022/07/16 14:57:47;;;;;;;3.72;2.03;;;;;;;;;;4985676;28;20113;-71
2022/07/16 15:00:32;;;;;;;3.35;1.75;;;;;;;;;;5007536;28;20069;-73
2022/07/16 15:03:18;;;;;;;6.15;1.90;;;;;;;;;;5012803;28;20033;-72
2022/07/16 15:06:04;;;;;;;5.13;1.77;;;;;;;;;;5016200;28;20049;-70
2022/07/16 15:08:49;;;;;;;5.38;1.75;;;;;;;;;;5016272;28;20040;-72
2022/07/16 15:11:35;;;;;;;3.58;1.83;;;;;;;;;;5016660;28;20029;-71
2022/07/16 15:14:21;;;;;;;5.90;1.63;;;;;;;;;;5022434;28;20967;-76
2022/07/16 15:17:06;;;;;;;5.15;1.55;;;;;;;;;;5021886;28;20476;-72
2022/07/16 15:19:52;;;;;;;3.92;1.70;;;;;;;;;;5015034;28;20021;-71
2022/07/16 15:22:38;;;;;;;4.38;1.60;;;;;;;;;;5014259;28;20036;-73
2022/07/16 15:25:24;;;;;;;8.20;2.45;;;;;;;;;;5021625;28;20546;-73
2022/07/16 15:28:10;;;;;;;3.25;1.85;;;;;;;;;;5014979;28;20041;-71
2022/07/16 15:30:56;;;;;;;7.22;1.77;;;;;;;;;;5002961;28;20037;-72
2022/07/16 15:33:42;;;;;;;4.30;1.58;;;;;;;;;;5013514;28;20465;-70
2022/07/16 15:36:27;;;;;;;3.58;1.67;;;;;;;;;;5020397;28;20087;-75
2022/07/16 15:39:13;;;;;;;3.25;1.52;;;;;;;;;;5008468;28;20033;-73
2022/07/16 15:41:59;;;;;;;4.82;1.80;;;;;;;;;;5017040;28;20105;-74
2022/07/16 15:44:44;;;;;;;6.60;1.67;;;;;;;;;;5002359;28;20112;-73
2022/07/16 15:47:30;;;;;;;4.65;3.35;;;;;;;;;;5013136;28;20045;-73
2022/07/16 15:50:16;;;;;;;3.45;2.25;;;;;;;;;;5012713;28;20041;-75
2022/07/16 15:53:01;;;;;;;5.43;2.00;;;;;;;;;;5016885;28;20037;-76
2022/07/16 15:55:47;;;;;;;5.78;1.95;;;;;;;;;;5002642;28;20029;-74
2022/07/16 15:58:34;;;;;;;4.50;1.80;;;;;;;;;;4991208;28;20177;-75
2022/07/16 16:01:20;;;;;;;3.72;1.77;;;;;;;;;;4992995;28;20114;-75
2022/07/16 16:04:06;;;;;;;2.97;1.70;;;;;;;;;;4991068;28;20073;-74
2022/07/16 16:06:51;;;;;;;6.90;2.35;;;;;;;;;;4995266;28;20037;-75
2022/07/16 16:09:37;;;;;;;4.90;2.20;;;;;;;;;;4987580;28;20029;-74
2022/07/16 16:12:23;;;;;;;2.92;1.65;;;;;;;;;;4969328;28;20092;-74
2022/07/16 16:15:09;;;;;;;5.57;1.80;;;;;;;;;;4995771;28;20044;-73
2022/07/16 16:17:55;;;;;;;3.45;1.73;;;;;;;;;;4984350;28;20026;-74
2022/07/16 16:20:41;;;;;;;3.05;2.15;;;;;;;;;;4986165;28;20532;-75
2022/07/16 16:23:28;;;;;;;3.80;2.20;;;;;;;;;;5002116;28;20492;-74
2022/07/16 16:26:14;;;;;;;6.18;2.42;;;;;;;;;;4990750;28;20421;-72
2022/07/16 16:29:01;;;;;;;3.67;2.08;;;;;;;;;;4976804;28;20464;-71
2022/07/16 16:31:47;;;;;;;5.72;2.20;;;;;;;;;;4976980;28;20034;-73
2022/07/16 16:34:33;;;;;;;3.80;1.60;;;;;;;;;;4983819;28;20559;-72
2022/07/16 16:37:18;;;;;;;5.45;1.70;;;;;;;;;;4995213;28;21417;-73
2022/07/16 16:40:06;;;;;;;4.47;2.00;;;;;;;;;;4997007;28;20041;-72
2022/07/16 16:42:52;;;;;;;3.97;1.92;;;;;;;;;;4980231;28;20121;-72
2022/07/16 16:45:38;;;;;;;3.55;1.73;;;;;;;;;;4974653;28;20030;-68
2022/07/16 16:48:23;;;;;;;6.63;2.80;;;;;;;;;;4984990;28;20046;-73
2022/07/16 16:51:09;;;;;;;6.13;2.78;;;;;;;;;;4990184;28;20117;-60